Time;durP1;ratioP1;P1;durP2;ratioP2;P2;SDS_P1;SDS_P2;PMS_P1;PMS_P2;Temp;Humidity;BMP_temperature;BMP_pressure;BME280_temperature;BME280_humidity;BME280_pressure;Samples;Min_cycle;Max_cycle;Signal;HPM_P1;HPM_P2
2022/01/05 00:01:00;;;;;;;13.70;6.32;;;5.40;99.90;;;;;;5113124;28;20506;-83
2022/01/05 00:03:26;;;;;;;9.70;6.00;;;5.20;99.90;;;;;;5112843;28;20019;-83
2022/01/05 00:05:52;;;;;;;13.27;6.07;;;5.20;99.90;;;;;;5112636;28;20388;-83
2022/01/05 00:08:20;;;;;;;14.02;6.60;;;5.20;99.90;;;;;;5112868;28;20028;-83
2022/01/05 00:10:45;;;;;;;7.28;5.07;;;5.20;99.90;;;;;;5112948;28;20525;-83
2022/01/05 00:13:12;;;;;;;8.65;4.82;;;5.10;99.90;;;;;;5112232;28;20031;-83
2022/01/05 00:15:37;;;;;;;12.23;5.68;;;5.10;99.90;;;;;;5112841;28;20472;-83
2022/01/05 00:18:03;;;;;;;13.10;5.20;;;5.10;99.90;;;;;;5112768;28;20023;-83
2022/01/05 00:20:35;;;;;;;20.45;6.63;;;5.00;99.90;;;;;;5116238;28;20023;-83
2022/01/05 00:23:01;;;;;;;14.93;5.63;;;5.00;99.90;;;;;;5116720;28;20073;-83
2022/01/05 00:25:27;;;;;;;13.40;5.28;;;5.00;99.90;;;;;;5117044;28;20024;-83
2022/01/05 00:27:55;;;;;;;25.15;5.75;;;4.90;99.90;;;;;;5098547;28;20024;-82
2022/01/05 00:30:21;;;;;;;20.08;5.20;;;4.90;99.90;;;;;;5116798;28;20023;-82
2022/01/05 00:32:47;;;;;;;18.50;6.18;;;4.80;99.90;;;;;;5097403;28;20169;-83
2022/01/05 00:35:14;;;;;;;6.82;4.00;;;4.80;99.90;;;;;;5116369;28;20028;-83
2022/01/05 00:37:40;;;;;;;13.32;4.32;;;4.70;99.90;;;;;;5116220;28;20111;-83
2022/01/05 00:40:06;;;;;;;9.05;3.38;;;4.70;99.90;;;;;;5116962;28;20067;-83
2022/01/05 00:42:32;;;;;;;13.32;4.03;;;4.60;99.90;;;;;;5116351;28;20026;-83
2022/01/05 00:44:58;;;;;;;8.02;3.17;;;4.50;99.90;;;;;;5116628;28;20030;-83
2022/01/05 00:47:24;;;;;;;11.75;2.38;;;4.50;99.90;;;;;;5098259;28;20106;-83
2022/01/05 00:49:52;;;;;;;6.95;3.08;;;4.50;99.90;;;;;;5098072;28;20035;-83
2022/01/05 00:52:18;;;;;;;13.52;3.45;;;4.40;99.90;;;;;;5116049;28;20016;-83
2022/01/05 00:54:45;;;;;;;15.52;3.40;;;4.40;99.90;;;;;;5098249;28;20081;-82
2022/01/05 00:57:11;;;;;;;17.55;3.65;;;4.40;99.90;;;;;;5116479;28;20042;-82
2022/01/05 00:59:37;;;;;;;10.65;3.05;;;4.30;99.90;;;;;;5115983;28;20116;-83
2022/01/05 01:02:03;;;;;;;9.05;2.63;;;4.20;99.90;;;;;;5097943;28;20019;-83
2022/01/05 01:04:29;;;;;;;8.77;3.28;;;4.20;99.90;;;;;;5115803;28;20020;-83
2022/01/05 01:06:54;;;;;;;19.60;3.63;;;4.20;99.90;;;;;;5097712;28;20076;-82
2022/01/05 01:09:20;;;;;;;6.22;2.65;;;4.20;99.90;;;;;;5116026;28;20024;-83
2022/01/05 01:11:46;;;;;;;13.38;3.33;;;4.20;99.90;;;;;;5115725;28;20104;-82
2022/01/05 01:14:12;;;;;;;18.88;2.97;;;4.00;99.90;;;;;;5115958;28;20019;-82
2022/01/05 01:16:37;;;;;;;14.20;3.10;;;4.00;99.90;;;;;;5116182;28;20467;-82
2022/01/05 01:19:03;;;;;;;12.60;3.05;;;3.90;99.90;;;;;;5115372;28;20027;-82
2022/01/05 01:21:28;;;;;;;9.77;2.45;;;3.80;99.90;;;;;;5115684;28;20364;-82
2022/01/05 01:23:56;;;;;;;16.23;2.42;;;3.70;99.90;;;;;;5115858;28;20080;-83
2022/01/05 01:26:28;;;;;;;15.05;2.72;;;3.70;99.90;;;;;;5097426;28;20023;-82
2022/01/05 01:28:54;;;;;;;13.57;2.47;;;3.70;99.90;;;;;;5115492;28;20027;-82
2022/01/05 01:31:21;;;;;;;6.18;2.30;;;3.70;99.90;;;;;;5097082;28;20028;-83
2022/01/05 01:33:47;;;;;;;14.23;2.10;;;3.60;99.90;;;;;;5097552;28;20490;-82
2022/01/05 01:36:13;;;;;;;10.90;1.98;;;3.40;99.90;;;;;;5097023;28;20031;-82
2022/01/05 01:38:41;;;;;;;7.43;1.80;;;3.30;99.90;;;;;;5115432;28;20375;-82
2022/01/05 01:41:07;;;;;;;18.60;2.30;;;3.10;99.90;;;;;;5097522;28;20024;-81
2022/01/05 01:43:32;;;;;;;10.77;2.20;;;2.90;99.90;;;;;;5115426;28;20023;-81
2022/01/05 01:45:58;;;;;;;16.17;2.10;;;2.80;99.90;;;;;;5115360;28;20135;-81
2022/01/05 01:48:24;;;;;;;19.50;2.25;;;2.70;99.90;;;;;;5097201;28;20031;-81
2022/01/05 01:50:49;;;;;;;12.18;1.63;;;2.60;99.90;;;;;;5114860;28;20042;-82
2022/01/05 01:53:15;;;;;;;13.40;2.30;;;2.60;99.90;;;;;;5115260;28;20028;-82
2022/01/05 01:55:40;;;;;;;13.65;2.28;;;2.60;99.90;;;;;;5114960;28;20038;-81
2022/01/05 01:58:18;;;;;;;9.40;1.75;;;2.70;99.90;;;;;;5115340;28;20039;-82
2022/01/05 02:00:43;;;;;;;7.40;2.05;;;2.70;99.90;;;;;;5114875;28;20044;-82
2022/01/05 02:03:11;;;;;;;6.82;1.70;;;2.70;99.90;;;;;;5096936;28;20034;-82
2022/01/05 02:05:37;;;;;;;9.57;1.92;;;2.80;99.90;;;;;;5073984;28;20024;-82
2022/01/05 02:08:03;;;;;;;3.63;1.40;;;2.80;99.90;;;;;;5074733;28;20033;-82
2022/01/05 02:10:28;;;;;;;7.03;1.85;;;2.80;99.90;;;;;;5111737;28;20072;-82
2022/01/05 02:12:55;;;;;;;11.50;1.98;;;2.90;99.90;;;;;;5096747;28;20364;-82
2022/01/05 02:15:21;;;;;;;17.00;2.28;;;2.90;99.90;;;;;;5096277;28;20035;-82
2022/01/05 02:17:55;;;;;;;8.90;2.05;;;2.90;99.90;;;;;;5114243;28;20023;-82
2022/01/05 02:20:26;;;;;;;12.38;2.10;;;3.00;99.90;;;;;;5114400;28;20052;-82
2022/01/05 02:22:53;;;;;;;9.95;2.05;;;3.00;99.90;;;;;;5080950;28;20015;-82
2022/01/05 02:25:19;;;;;;;7.55;1.90;;;3.00;99.90;;;;;;5126458;27;20024;-82
2022/01/05 02:27:46;;;;;;;8.57;1.95;;;3.00;99.90;;;;;;5114128;28;20035;-82
2022/01/05 02:30:16;;;;;;;9.20;1.88;;;3.10;99.90;;;;;;5114574;28;20027;-82
2022/01/05 02:32:42;;;;;;;11.80;2.17;;;3.10;99.90;;;;;;5114895;28;20027;-82
2022/01/05 02:35:10;;;;;;;11.80;2.30;;;3.10;99.90;;;;;;5113747;28;20123;-82
2022/01/05 02:37:45;;;;;;;12.40;2.00;;;3.10;99.90;;;;;;5114337;28;20471;-82
2022/01/05 02:40:12;;;;;;;10.45;1.90;;;3.10;99.90;;;;;;5103947;28;20143;-82
2022/01/05 02:42:38;;;;;;;13.52;2.28;;;3.10;99.90;;;;;;5113469;28;20081;-82
2022/01/05 02:45:06;;;;;;;10.25;1.92;;;3.20;99.90;;;;;;5114418;28;20011;-83
2022/01/05 02:47:32;;;;;;;17.17;2.50;;;3.20;99.90;;;;;;5114452;28;20431;-82
2022/01/05 02:49:58;;;;;;;4.22;1.60;;;3.20;99.90;;;;;;5095339;28;20051;-82
2022/01/05 02:52:26;;;;;;;12.68;2.22;;;3.20;99.90;;;;;;5113978;28;20035;-83
2022/01/05 02:54:52;;;;;;;12.85;2.65;;;3.20;99.90;;;;;;5096053;28;20442;-83
2022/01/05 02:57:17;;;;;;;18.33;2.47;;;3.20;99.90;;;;;;5095328;28;20102;-83
2022/01/05 02:59:43;;;;;;;13.88;2.40;;;3.20;99.90;;;;;;5113111;28;20039;-83
2022/01/05 03:02:09;;;;;;;14.70;2.35;;;3.10;99.90;;;;;;5113475;28;20072;-83
2022/01/05 03:04:35;;;;;;;10.10;1.85;;;3.00;99.90;;;;;;5113470;28;20475;-83
2022/01/05 03:07:00;;;;;;;15.68;2.28;;;3.00;99.90;;;;;;5111535;28;20032;-83
2022/01/05 03:09:26;;;;;;;13.93;2.42;;;3.00;99.90;;;;;;5113790;28;20026;-83
2022/01/05 03:11:52;;;;;;;13.13;2.33;;;3.00;99.90;;;;;;5113389;28;20024;-83
2022/01/05 03:14:19;;;;;;;17.00;2.78;;;3.00;99.90;;;;;;5114224;28;20059;-83
2022/01/05 03:16:45;;;;;;;17.77;5.00;;;3.00;99.90;;;;;;5113688;28;20030;-83
2022/01/05 03:19:10;;;;;;;16.95;3.35;;;3.00;99.90;;;;;;5095191;28;20027;-82
2022/01/05 03:21:36;;;;;;;26.65;2.97;;;3.10;99.90;;;;;;5095057;28;20139;-83
2022/01/05 03:24:01;;;;;;;16.33;3.33;;;3.10;99.90;;;;;;5095529;28;20024;-83
2022/01/05 03:26:33;;;;;;;18.98;3.42;;;3.10;99.90;;;;;;5113650;28;20027;-82
2022/01/05 03:28:58;;;;;;;15.35;2.40;;;3.20;99.90;;;;;;5113453;28;20080;-82
2022/01/05 03:31:24;;;;;;;16.27;2.70;;;3.20;99.90;;;;;;5113552;28;20032;-82
2022/01/05 03:33:50;;;;;;;13.82;2.40;;;3.20;99.90;;;;;;5095057;28;20356;-82
2022/01/05 03:36:17;;;;;;;29.98;2.83;;;3.20;99.90;;;;;;5113421;28;20023;-82
2022/01/05 03:38:43;;;;;;;10.20;2.03;;;3.30;99.90;;;;;;5113323;28;20023;-82
2022/01/05 03:41:10;;;;;;;12.38;2.33;;;3.30;99.90;;;;;;5113350;28;20019;-82
2022/01/05 03:43:35;;;;;;;15.73;2.78;;;3.20;99.90;;;;;;5113407;28;20051;-83
2022/01/05 03:46:07;;;;;;;15.73;3.28;;;3.30;99.90;;;;;;5113643;28;20077;-82
2022/01/05 03:48:33;;;;;;;11.63;2.58;;;3.30;99.90;;;;;;5113143;28;20027;-82
2022/01/05 03:50:59;;;;;;;21.67;2.75;;;3.30;99.90;;;;;;5113013;28;20031;-83
2022/01/05 03:53:25;;;;;;;15.93;2.38;;;3.30;99.90;;;;;;5094762;28;20051;-83
2022/01/05 03:55:50;;;;;;;15.13;2.40;;;3.20;99.90;;;;;;5113178;28;20063;-83
2022/01/05 03:58:16;;;;;;;10.20;2.20;;;3.20;99.90;;;;;;5112879;28;20111;-83
2022/01/05 04:00:45;;;;;;;16.27;2.80;;;3.20;99.90;;;;;;5109362;28;20114;-83
2022/01/05 04:03:16;;;;;;;26.70;3.72;;;3.20;99.90;;;;;;5112802;28;20041;-83
2022/01/05 04:05:42;;;;;;;14.07;2.20;;;3.20;99.90;;;;;;5112541;28;20495;-83
2022/01/05 04:08:09;;;;;;;16.52;2.40;;;3.20;99.90;;;;;;5113184;28;20034;-84
2022/01/05 04:10:35;;;;;;;16.00;2.15;;;3.20;99.90;;;;;;5113125;28;20071;-83
2022/01/05 04:13:06;;;;;;;20.13;3.08;;;3.20;99.90;;;;;;5113021;28;20074;-83
2022/01/05 04:15:32;;;;;;;11.52;3.03;;;3.20;99.90;;;;;;5113151;28;20144;-83
2022/01/05 04:18:07;;;;;;;14.05;2.40;;;3.20;99.90;;;;;;5094305;28;20485;-83
2022/01/05 04:20:33;;;;;;;12.57;2.20;;;3.30;99.90;;;;;;5112766;28;20064;-83
2022/01/05 04:23:01;;;;;;;11.75;2.85;;;3.20;99.90;;;;;;5113097;28;20444;-83
2022/01/05 04:25:27;;;;;;;8.57;2.38;;;3.20;99.90;;;;;;5112914;28;20507;-83
2022/01/05 04:28:00;;;;;;;18.17;2.92;;;3.20;99.90;;;;;;5112920;28;20062;-83
2022/01/05 04:30:25;;;;;;;9.93;2.92;;;3.20;99.90;;;;;;5110132;28;20471;-83
2022/01/05 04:32:52;;;;;;;13.93;2.28;;;3.20;99.90;;;;;;5092615;28;20081;-83
2022/01/05 04:35:17;;;;;;;10.77;2.42;;;3.20;99.90;;;;;;5111755;28;20032;-83
2022/01/05 04:37:43;;;;;;;13.93;2.28;;;3.30;99.90;;;;;;5112822;28;20080;-82
2022/01/05 04:40:11;;;;;;;14.20;2.05;;;3.30;99.90;;;;;;5086757;28;20076;-83
2022/01/05 04:42:36;;;;;;;13.98;2.20;;;3.30;99.90;;;;;;5074295;28;20043;-83
2022/01/05 04:45:02;;;;;;;10.70;2.50;;;3.20;99.90;;;;;;5094338;28;20032;-83
2022/01/05 04:47:29;;;;;;;15.63;2.40;;;3.30;99.90;;;;;;5113053;28;20039;-83
2022/01/05 04:49:55;;;;;;;10.48;2.90;;;3.30;99.90;;;;;;5112203;28;20032;-83
2022/01/05 04:52:20;;;;;;;18.13;3.00;;;3.30;99.90;;;;;;5112741;28;20028;-83
2022/01/05 04:54:46;;;;;;;6.93;1.75;;;3.30;99.90;;;;;;5112609;28;20039;-83
2022/01/05 04:57:18;;;;;;;15.43;2.67;;;3.40;99.90;;;;;;5112927;28;20098;-83
2022/01/05 04:59:48;;;;;;;18.30;2.42;;;3.30;99.90;;;;;;5071886;28;20095;-83
2022/01/05 05:02:15;;;;;;;15.93;2.25;;;3.30;99.90;;;;;;5072105;28;20085;-83
2022/01/05 05:04:42;;;;;;;9.30;1.92;;;3.30;99.90;;;;;;5081776;28;20012;-83
2022/01/05 05:07:07;;;;;;;9.85;2.58;;;3.30;99.90;;;;;;5094676;28;20017;-83
2022/01/05 05:09:35;;;;;;;15.57;2.67;;;3.30;99.90;;;;;;5096256;28;20528;-83
2022/01/05 05:12:00;;;;;;;11.52;2.30;;;3.30;99.90;;;;;;5095725;28;20020;-84
2022/01/05 05:14:30;;;;;;;14.73;2.25;;;3.40;99.90;;;;;;5095941;28;20372;-84
2022/01/05 05:17:01;;;;;;;11.32;2.90;;;3.30;99.90;;;;;;5095674;28;20762;-83
2022/01/05 05:19:27;;;;;;;9.77;2.13;;;3.30;99.90;;;;;;5095373;28;20035;-83
2022/01/05 05:22:08;;;;;;;10.30;3.17;;;3.30;99.90;;;;;;5095743;28;20464;-84
2022/01/05 05:24:34;;;;;;;11.90;2.35;;;3.30;99.90;;;;;;5095689;28;20035;-83
2022/01/05 05:27:15;;;;;;;13.13;2.13;;;3.30;99.90;;;;;;5095499;28;20054;-83
2022/01/05 05:29:40;;;;;;;10.98;2.78;;;3.20;99.90;;;;;;5095484;28;20024;-83
2022/01/05 05:32:14;;;;;;;23.83;3.60;;;3.20;99.90;;;;;;5095442;28;20031;-83
2022/01/05 05:34:39;;;;;;;10.82;2.10;;;3.20;99.90;;;;;;5094831;28;20024;-83
2022/01/05 05:37:06;;;;;;;16.30;3.20;;;3.30;99.90;;;;;;5077082;28;20027;-83
2022/01/05 05:39:33;;;;;;;8.02;2.50;;;3.20;99.90;;;;;;5095288;28;20491;-83
2022/01/05 05:42:08;;;;;;;20.05;3.25;;;3.20;99.90;;;;;;5095194;28;20020;-83
2022/01/05 05:44:33;;;;;;;10.20;2.70;;;3.20;99.90;;;;;;5077157;28;20048;-83
2022/01/05 05:46:59;;;;;;;15.82;3.15;;;3.20;99.90;;;;;;5111944;28;20105;-83
2022/01/05 05:49:35;;;;;;;12.90;2.47;;;3.10;99.90;;;;;;5115689;28;20030;-83
2022/01/05 05:52:01;;;;;;;16.40;2.92;;;3.20;99.90;;;;;;5115169;28;20110;-83
2022/01/05 05:54:27;;;;;;;12.23;2.95;;;3.20;99.90;;;;;;5097275;28;20056;-83
2022/01/05 05:56:52;;;;;;;10.57;3.13;;;3.20;99.90;;;;;;5115264;28;20032;-83
2022/01/05 05:59:20;;;;;;;19.75;3.90;;;3.20;99.90;;;;;;5115097;28;20047;-83
2022/01/05 06:01:45;;;;;;;15.38;2.45;;;3.10;99.90;;;;;;5115167;28;20024;-83
2022/01/05 06:04:11;;;;;;;25.10;3.35;;;3.10;99.90;;;;;;5115111;28;20024;-83
2022/01/05 06:06:39;;;;;;;25.85;4.35;;;3.10;99.90;;;;;;5114984;28;20376;-82
2022/01/05 06:09:05;;;;;;;20.05;2.85;;;3.10;99.90;;;;;;5115301;28;20427;-83
2022/01/05 06:11:33;;;;;;;12.90;3.47;;;3.10;99.90;;;;;;5096899;28;20033;-83
2022/01/05 06:13:59;;;;;;;14.38;2.95;;;3.10;99.90;;;;;;5115227;28;20027;-83
2022/01/05 06:16:27;;;;;;;20.15;4.13;;;3.10;99.90;;;;;;5115160;28;20053;-83
2022/01/05 06:18:52;;;;;;;13.05;3.45;;;3.10;99.90;;;;;;5114580;28;20031;-82
2022/01/05 06:21:18;;;;;;;18.30;5.70;;;3.10;99.90;;;;;;5114444;28;20527;-82
2022/01/05 06:23:43;;;;;;;17.20;6.63;;;3.00;99.90;;;;;;5113866;28;20084;-82
2022/01/05 06:26:09;;;;;;;24.92;6.20;;;3.10;99.90;;;;;;5114617;28;20027;-83
2022/01/05 06:28:35;;;;;;;13.05;4.00;;;3.10;99.90;;;;;;5096448;28;20039;-83
2022/01/05 06:31:01;;;;;;;20.35;3.38;;;3.00;99.90;;;;;;5096600;28;20028;-83
2022/01/05 06:33:27;;;;;;;18.25;3.83;;;3.00;99.90;;;;;;5114305;28;20030;-83
2022/01/05 06:35:56;;;;;;;19.65;3.42;;;3.00;99.90;;;;;;5114603;28;20084;-83
2022/01/05 06:38:22;;;;;;;15.75;3.83;;;3.00;99.90;;;;;;5096287;28;20031;-82
2022/01/05 06:40:48;;;;;;;17.90;2.92;;;2.90;99.90;;;;;;5113997;28;20421;-82
2022/01/05 06:43:28;;;;;;;17.00;3.53;;;3.00;99.90;;;;;;5096157;28;20034;-82
2022/01/05 06:45:53;;;;;;;19.80;3.33;;;3.00;99.90;;;;;;5096929;28;20027;-82
2022/01/05 06:48:19;;;;;;;18.05;2.80;;;2.90;99.90;;;;;;5092732;28;20028;-83
2022/01/05 06:50:47;;;;;;;18.13;3.05;;;2.90;99.90;;;;;;5103567;28;20038;-82
2022/01/05 06:53:13;;;;;;;23.40;3.83;;;2.90;99.90;;;;;;5113874;28;20431;-83
2022/01/05 06:55:39;;;;;;;16.98;3.50;;;2.90;99.90;;;;;;5114608;28;20111;-83
2022/01/05 06:58:09;;;;;;;24.30;3.83;;;2.80;99.90;;;;;;5114238;28;20472;-82
2022/01/05 07:00:34;;;;;;;15.60;2.70;;;2.90;99.90;;;;;;5108432;28;20048;-82
2022/01/05 07:03:00;;;;;;;15.80;3.33;;;2.80;99.90;;;;;;5107111;28;20094;-81
2022/01/05 07:05:26;;;;;;;18.20;3.47;;;2.80;99.90;;;;;;5094045;28;20031;-82
2022/01/05 07:07:51;;;;;;;20.92;3.20;;;2.80;99.90;;;;;;5093534;28;20032;-82
2022/01/05 07:10:18;;;;;;;19.92;3.63;;;2.70;99.90;;;;;;5093604;28;20491;-81
2022/01/05 07:12:49;;;;;;;9.35;2.90;;;2.70;99.90;;;;;;5093820;28;20039;-82
2022/01/05 07:15:15;;;;;;;12.75;3.08;;;2.60;99.90;;;;;;5072987;28;20056;-82
2022/01/05 07:17:41;;;;;;;16.10;3.33;;;2.60;99.90;;;;;;5065204;28;20039;-82
2022/01/05 07:20:10;;;;;;;11.77;3.08;;;2.50;99.90;;;;;;5075389;28;20028;-81
2022/01/05 07:22:37;;;;;;;13.85;4.30;;;2.50;99.90;;;;;;5073146;28;20036;-82
2022/01/05 07:25:04;;;;;;;14.07;3.15;;;2.50;99.90;;;;;;5091756;28;20084;-82
2022/01/05 07:27:35;;;;;;;12.02;2.50;;;2.50;99.90;;;;;;5095034;28;20165;-82
2022/01/05 07:30:01;;;;;;;11.95;2.78;;;2.50;99.90;;;;;;5113406;28;20462;-82
2022/01/05 07:32:28;;;;;;;14.25;3.00;;;2.40;99.90;;;;;;5095289;28;20023;-82
2022/01/05 07:34:55;;;;;;;12.23;3.13;;;2.40;99.90;;;;;;5094785;28;20437;-82
2022/01/05 07:37:21;;;;;;;19.92;4.38;;;2.40;99.90;;;;;;5113157;28;20403;-82
2022/01/05 07:39:46;;;;;;;21.55;4.90;;;2.40;99.90;;;;;;5078782;28;20024;-82
2022/01/05 07:42:12;;;;;;;18.65;3.45;;;2.40;99.90;;;;;;5092429;28;20024;-82
2022/01/05 07:44:38;;;;;;;10.70;3.65;;;2.40;99.90;;;;;;5074816;28;20023;-82
2022/01/05 07:47:05;;;;;;;21.13;3.35;;;2.40;99.90;;;;;;5075013;28;20491;-82
2022/01/05 07:49:33;;;;;;;12.70;3.03;;;2.40;99.90;;;;;;5092635;28;20028;-82
2022/01/05 07:51:58;;;;;;;26.00;3.45;;;2.40;99.90;;;;;;5094679;28;20040;-82
2022/01/05 07:54:24;;;;;;;17.33;3.72;;;2.40;99.90;;;;;;5092909;28;20024;-82
2022/01/05 07:56:51;;;;;;;14.82;3.20;;;2.40;99.90;;;;;;5092824;28;20025;-82
2022/01/05 07:59:21;;;;;;;25.85;3.45;;;2.30;99.90;;;;;;5077635;28;20050;-82
2022/01/05 08:01:47;;;;;;;12.57;3.10;;;2.30;99.90;;;;;;5112860;28;20074;-83
2022/01/05 08:04:14;;;;;;;15.18;3.10;;;2.40;99.90;;;;;;5112524;28;20055;-82
2022/01/05 08:06:42;;;;;;;12.38;3.75;;;2.30;99.90;;;;;;5112902;28;20020;-82
2022/01/05 08:09:08;;;;;;;26.52;3.53;;;2.40;99.90;;;;;;5113269;28;20082;-83
2022/01/05 08:11:34;;;;;;;16.08;3.78;;;2.30;99.90;;;;;;5112941;28;20031;-83
2022/01/05 08:14:00;;;;;;;14.55;4.03;;;2.30;99.90;;;;;;5094674;28;20072;-81
2022/01/05 08:16:25;;;;;;;15.13;3.80;;;2.30;99.90;;;;;;5113162;28;20035;-83
2022/01/05 08:18:51;;;;;;;14.60;3.63;;;2.30;99.90;;;;;;5094329;28;20027;-83
2022/01/05 08:21:17;;;;;;;25.23;4.47;;;2.30;99.90;;;;;;5112923;28;20059;-83
2022/01/05 08:23:43;;;;;;;21.77;5.47;;;2.30;99.90;;;;;;5112615;28;20031;-82
2022/01/05 08:26:11;;;;;;;23.95;4.75;;;2.30;99.90;;;;;;5094721;28;20447;-82
2022/01/05 08:28:36;;;;;;;26.83;5.03;;;2.30;99.90;;;;;;5094917;28;20507;-82
2022/01/05 08:31:02;;;;;;;23.20;4.68;;;2.30;99.90;;;;;;5112842;28;20028;-82
2022/01/05 08:33:29;;;;;;;14.23;4.00;;;2.30;99.90;;;;;;5112381;28;20027;-82
2022/01/05 08:35:55;;;;;;;15.85;4.13;;;2.30;99.90;;;;;;5094443;28;20386;-82
2022/01/05 08:38:21;;;;;;;21.30;5.00;;;2.40;99.90;;;;;;5112615;28;20024;-82
2022/01/05 08:40:47;;;;;;;13.00;4.32;;;2.40;99.90;;;;;;5115018;28;20047;-82
2022/01/05 08:43:14;;;;;;;17.80;4.30;;;2.40;99.90;;;;;;5116762;28;20513;-82
2022/01/05 08:45:41;;;;;;;16.80;4.72;;;2.40;99.90;;;;;;5116555;28;20016;-82
2022/01/05 08:48:13;;;;;;;34.20;5.75;;;2.40;99.90;;;;;;5116364;28;20073;-82
2022/01/05 08:50:39;;;;;;;15.32;4.18;;;2.40;99.90;;;;;;5116070;28;20031;-82
2022/01/05 08:53:06;;;;;;;20.48;5.20;;;2.40;99.90;;;;;;5098095;28;20023;-82
2022/01/05 08:55:41;;;;;;;20.45;5.10;;;2.50;99.90;;;;;;5116497;28;20024;-82
2022/01/05 08:58:08;;;;;;;13.82;4.85;;;2.50;99.90;;;;;;5116508;28;20115;-83
2022/01/05 09:00:36;;;;;;;15.68;4.95;;;2.50;99.90;;;;;;5116035;28;20039;-82
2022/01/05 09:03:04;;;;;;;23.52;5.03;;;2.50;99.90;;;;;;5097900;28;20098;-83
2022/01/05 09:05:30;;;;;;;20.67;5.72;;;2.50;99.90;;;;;;5096861;28;20043;-83
2022/01/05 09:07:56;;;;;;;12.93;4.15;;;2.60;99.90;;;;;;5101898;28;20054;-82
2022/01/05 09:10:23;;;;;;;29.58;7.32;;;2.60;99.90;;;;;;5116066;28;20045;-83
2022/01/05 09:12:49;;;;;;;20.33;5.20;;;2.60;99.90;;;;;;5116195;28;20046;-82
2022/01/05 09:15:15;;;;;;;23.05;5.40;;;2.50;99.90;;;;;;5097762;28;20024;-82
2022/01/05 09:17:41;;;;;;;19.40;4.78;;;2.50;99.90;;;;;;5115615;28;20050;-83
2022/01/05 09:20:08;;;;;;;15.48;3.85;;;2.50;99.90;;;;;;5115951;28;20031;-83
2022/01/05 09:22:38;;;;;;;17.88;4.00;;;2.60;99.90;;;;;;5077619;28;20023;-83
2022/01/05 09:25:10;;;;;;;13.77;3.65;;;2.70;99.90;;;;;;5095575;28;20464;-84
2022/01/05 09:27:37;;;;;;;24.38;3.67;;;2.60;99.90;;;;;;5095346;28;20028;-83
2022/01/05 09:30:10;;;;;;;19.55;3.95;;;2.60;99.90;;;;;;5111108;28;20490;-84
2022/01/05 09:32:36;;;;;;;22.92;5.30;;;2.60;99.90;;;;;;5103926;28;20027;-83
2022/01/05 09:35:03;;;;;;;24.02;5.68;;;2.60;99.90;;;;;;5096780;28;20103;-82
2022/01/05 09:37:35;;;;;;;16.48;3.70;;;2.60;99.90;;;;;;5094917;28;20078;-82
2022/01/05 09:42:47;;;;;;;24.02;5.97;;;2.70;99.90;;;;;;5096241;28;20043;-83
2022/01/05 09:45:15;;;;;;;23.48;5.05;;;2.70;99.90;;;;;;5115372;28;20103;-82
2022/01/05 09:48:00;;;;;;;24.98;4.72;;;2.70;99.90;;;;;;5110511;28;20491;-83
2022/01/05 09:50:26;;;;;;;24.75;5.38;;;2.70;99.90;;;;;;5114976;28;20027;-82
2022/01/05 09:52:52;;;;;;;22.38;4.47;;;2.70;99.90;;;;;;5115322;28;20035;-83
2022/01/05 09:55:17;;;;;;;21.67;4.63;;;2.80;99.90;;;;;;5115373;28;20028;-81
2022/01/05 09:57:46;;;;;;;29.55;5.07;;;2.80;99.90;;;;;;5079654;28;20633;-82
2022/01/05 10:00:14;;;;;;;23.20;4.35;;;2.80;99.90;;;;;;5105959;28;20048;-82
2022/01/05 10:02:41;;;;;;;17.38;4.07;;;2.80;99.90;;;;;;5094460;28;20024;-82
2022/01/05 10:05:11;;;;;;;28.08;5.75;;;2.80;99.90;;;;;;5076620;28;20024;-82
2022/01/05 10:07:42;;;;;;;16.58;3.80;;;2.90;99.90;;;;;;5094486;28;20051;-82
2022/01/05 10:10:09;;;;;;;29.10;5.55;;;2.90;99.90;;;;;;5095325;28;20054;-82
2022/01/05 10:12:34;;;;;;;19.23;4.30;;;2.90;99.90;;;;;;5114772;28;20058;-82
2022/01/05 10:15:04;;;;;;;30.42;6.32;;;2.90;99.90;;;;;;5096596;28;20059;-82
2022/01/05 10:17:32;;;;;;;16.27;3.95;;;2.90;99.90;;;;;;5114422;28;20032;-83
2022/01/05 10:20:07;;;;;;;21.95;4.68;;;2.90;99.90;;;;;;5114961;28;20023;-82
2022/01/05 10:22:40;;;;;;;13.02;3.08;;;2.90;99.90;;;;;;5114301;28;20045;-82
2022/01/05 10:25:26;;;;;;;27.48;5.13;;;3.00;99.90;;;;;;5114514;28;20474;-82
2022/01/05 10:28:01;;;;;;;13.73;5.07;;;3.00;99.90;;;;;;5096066;28;20035;-82
2022/01/05 10:30:38;;;;;;;40.63;5.68;;;2.90;99.90;;;;;;5114751;28;20032;-83
2022/01/05 10:33:06;;;;;;;23.95;4.57;;;2.90;99.90;;;;;;5114024;28;20038;-82
2022/01/05 10:35:33;;;;;;;15.57;4.20;;;2.90;99.90;;;;;;5096138;28;20035;-82
2022/01/05 10:38:04;;;;;;;25.25;3.80;;;2.90;99.90;;;;;;5114368;28;20069;-82
2022/01/05 10:40:40;;;;;;;20.70;4.75;;;2.90;99.90;;;;;;5114602;28;20072;-82
2022/01/05 10:43:11;;;;;;;30.95;6.15;;;2.90;99.90;;;;;;5114478;28;20023;-82
2022/01/05 10:45:42;;;;;;;16.02;3.83;;;2.90;99.90;;;;;;5114308;28;20475;-81
2022/01/05 10:48:18;;;;;;;22.50;3.97;;;2.90;99.90;;;;;;5113946;28;20033;-81
2022/01/05 10:50:47;;;;;;;29.75;5.53;;;2.90;99.90;;;;;;5114245;28;20111;-83
2022/01/05 10:53:21;;;;;;;24.00;4.28;;;2.90;99.90;;;;;;5080308;28;20018;-82
2022/01/05 10:55:49;;;;;;;28.95;3.45;;;2.90;99.90;;;;;;5112246;28;20479;-84
2022/01/05 10:58:19;;;;;;;21.60;4.47;;;2.90;99.90;;;;;;5113764;28;20110;-83
2022/01/05 11:00:55;;;;;;;22.63;4.57;;;2.90;99.90;;;;;;5103533;28;20079;-82
2022/01/05 11:03:35;;;;;;;24.55;3.45;;;2.90;99.90;;;;;;5085549;28;20023;-81
2022/01/05 11:06:20;;;;;;;22.52;4.13;;;3.00;99.90;;;;;;5114152;28;20510;-82
2022/01/05 11:08:53;;;;;;;21.08;4.75;;;3.00;99.90;;;;;;5113617;28;20023;-83
2022/01/05 11:11:43;;;;;;;16.58;3.75;;;3.00;99.90;;;;;;5113828;28;20482;-83
2022/01/05 11:14:12;;;;;;;14.60;3.90;;;3.00;99.90;;;;;;5095421;28;20073;-82
2022/01/05 11:16:41;;;;;;;22.05;4.32;;;3.00;99.90;;;;;;5113740;28;20383;-82
2022/01/05 11:19:29;;;;;;;23.52;4.57;;;2.90;99.90;;;;;;5113137;28;20026;-82
2022/01/05 11:22:16;;;;;;;20.17;4.20;;;2.90;99.90;;;;;;5094774;28;20027;-82
2022/01/05 11:24:45;;;;;;;17.05;3.75;;;2.90;99.90;;;;;;5113478;28;20471;-84
2022/01/05 11:27:14;;;;;;;21.38;4.25;;;2.90;99.90;;;;;;5113393;28;20030;-82
2022/01/05 11:29:45;;;;;;;28.15;5.47;;;2.90;99.90;;;;;;5113254;28;20015;-83
2022/01/05 11:32:13;;;;;;;20.27;4.00;;;2.90;99.90;;;;;;5128635;27;20027;-81
2022/01/05 11:34:39;;;;;;;22.85;4.97;;;2.90;99.90;;;;;;5113352;28;20023;-81
2022/01/05 11:37:07;;;;;;;19.40;4.38;;;3.00;99.90;;;;;;5113599;28;20023;-82
2022/01/05 11:39:34;;;;;;;16.25;3.10;;;3.00;99.90;;;;;;5113642;28;20023;-83
2022/01/05 11:42:10;;;;;;;28.50;4.70;;;3.00;99.90;;;;;;5113371;28;20084;-82
2022/01/05 11:44:48;;;;;;;19.05;4.03;;;3.00;99.90;;;;;;5113339;28;20451;-82
2022/01/05 11:47:28;;;;;;;14.15;3.33;;;2.90;99.90;;;;;;5112986;28;20019;-82
2022/01/05 11:50:15;;;;;;;14.65;3.45;;;3.00;99.90;;;;;;5106408;28;20095;-81
2022/01/05 11:53:06;;;;;;;14.05;3.03;;;3.00;99.90;;;;;;5112939;28;20056;-80
2022/01/05 11:55:59;;;;;;;17.50;3.33;;;3.00;99.90;;;;;;5113572;28;20032;-82
2022/01/05 11:59:03;;;;;;;15.90;2.80;;;3.00;99.90;;;;;;5113019;28;20069;-82
2022/01/05 12:01:31;;;;;;;15.40;3.55;;;3.10;99.90;;;;;;5094788;28;20031;-82
2022/01/05 12:03:57;;;;;;;18.85;3.15;;;3.20;99.90;;;;;;5112416;28;20027;-81
2022/01/05 12:06:53;;;;;;;14.88;3.10;;;3.20;99.90;;;;;;5113036;28;20024;-82
2022/01/05 12:09:25;;;;;;;9.60;2.97;;;3.30;99.90;;;;;;5112500;28;20019;-82
2022/01/05 12:11:51;;;;;;;8.52;2.38;;;3.30;99.90;;;;;;5101913;28;20024;-82
2022/01/05 12:14:20;;;;;;;10.80;2.88;;;3.40;99.90;;;;;;5094471;28;20145;-81
2022/01/05 12:17:01;;;;;;;12.05;2.45;;;3.40;99.90;;;;;;5097210;28;20031;-82
2022/01/05 12:19:34;;;;;;;10.93;3.53;;;3.40;99.90;;;;;;5108908;28;20050;-81
2022/01/05 12:22:10;;;;;;;12.43;4.57;;;3.50;99.90;;;;;;5077553;28;20020;-81
2022/01/05 12:24:53;;;;;;;5.35;2.42;;;3.40;99.90;;;;;;5084039;28;20017;-81
2022/01/05 12:27:25;;;;;;;9.15;2.75;;;3.40;99.90;;;;;;5092282;28;20028;-81
2022/01/05 12:29:51;;;;;;;8.75;2.88;;;3.30;99.90;;;;;;5112716;28;20015;-80
2022/01/05 12:32:38;;;;;;;12.23;3.25;;;3.20;99.90;;;;;;5098209;28;20051;-80
2022/01/05 12:35:23;;;;;;;17.58;3.33;;;2.90;99.90;;;;;;5106747;28;20023;-81
2022/01/05 12:37:56;;;;;;;10.13;2.88;;;2.70;99.90;;;;;;5106293;28;20024;-80
2022/01/05 12:40:22;;;;;;;9.35;3.30;;;2.60;99.90;;;;;;5116548;28;20455;-81
2022/01/05 12:42:49;;;;;;;5.60;2.58;;;2.60;99.90;;;;;;5115825;28;20031;-81
2022/01/05 12:45:49;;;;;;;15.93;3.08;;;2.60;99.90;;;;;;5094957;28;20061;-81
2022/01/05 12:48:33;;;;;;;4.10;2.83;;;2.60;99.90;;;;;;5085669;28;20020;-81
2022/01/05 12:51:17;;;;;;;9.07;2.60;;;2.60;99.90;;;;;;5096014;28;20032;-81
2022/01/05 12:54:01;;;;;;;2.55;2.15;;;2.60;99.90;;;;;;5105499;28;20047;-80
2022/01/05 12:56:42;;;;;;;12.40;2.28;;;2.60;99.90;;;;;;5098304;28;20375;-81
2022/01/05 12:59:20;;;;;;;5.80;2.42;;;2.50;99.90;;;;;;5115711;28;20105;-80